Time;durP1;ratioP1;P1;durP2;ratioP2;P2;SDS_P1;SDS_P2;PMS_P1;PMS_P2;Temp;Humidity;BMP_temperature;BMP_pressure;BME280_temperature;BME280_humidity;BME280_pressure;Samples;Min_cycle;Max_cycle;Signal;HPM_P1;HPM_P2
2021/09/25 00:01:20;;;;;;;0.70;0.60;;;;;;;14.59;100.00;-19425.16;6276356;22;20375;-73
2021/09/25 00:03:47;;;;;;;1.67;0.97;;;;;;;14.49;100.00;-18459.50;6223220;22;20438;-73
2021/09/25 00:06:16;;;;;;;0.80;0.80;;;;;;;14.45;100.00;-17061.13;6276598;22;20400;-72
2021/09/25 00:08:43;;;;;;;0.70;0.70;;;;;;;14.42;100.00;-15435.34;6275881;22;20411;-72
2021/09/25 00:11:10;;;;;;;0.70;0.60;;;;;;;14.28;100.00;-13787.00;6275912;22;20380;-72
2021/09/25 00:13:41;;;;;;;0.70;0.60;;;;;;;14.21;100.00;-11783.31;6248711;22;20441;-73
2021/09/25 00:16:09;;;;;;;0.80;0.80;;;;;;;14.18;100.00;-9185.19;6278292;22;20422;-73
2021/09/25 00:18:37;;;;;;;0.70;0.70;;;;;;;14.16;100.00;-6418.28;6278524;22;20376;-72
2021/09/25 00:21:06;;;;;;;0.70;0.70;;;;;;;14.11;100.00;-3692.31;6251115;22;20489;-73
2021/09/25 00:23:33;;;;;;;0.70;0.60;;;;;;;14.00;100.00;-2203.50;6250791;22;20431;-72
2021/09/25 00:26:00;;;;;;;0.70;0.70;;;;;;;13.90;100.00;-1811.28;6278175;22;20404;-72
2021/09/25 00:28:27;;;;;;;0.70;0.70;;;;;;;13.80;100.00;-803.75;6250496;22;20866;-72
2021/09/25 00:30:58;;;;;;;0.70;0.70;;;;;;;13.69;100.00;530.59;6250775;22;20425;-72
2021/09/25 00:33:31;;;;;;;0.80;0.70;;;;;;;13.61;100.00;1444.63;6252082;22;20373;-72
2021/09/25 00:36:05;;;;;;;0.80;0.70;;;;;;;13.56;100.00;2143.50;6251667;22;20374;-72
2021/09/25 00:38:39;;;;;;;0.73;0.70;;;;;;;13.52;100.00;2847.75;6225948;22;20494;-73
2021/09/25 00:41:09;;;;;;;0.80;0.70;;;;;;;13.56;100.00;3426.09;6251316;22;20383;-72
2021/09/25 00:43:42;;;;;;;0.80;0.70;;;;;;;13.66;100.00;4330.22;6250447;22;20448;-73
2021/09/25 00:46:13;;;;;;;0.80;0.70;;;;;;;13.88;100.00;4871.09;6275907;22;20374;-71
2021/09/25 00:48:43;;;;;;;0.70;0.60;;;;;;;13.92;100.00;5036.72;6225470;22;20407;-73
2021/09/25 00:51:12;;;;;;;0.70;0.70;;;;;;;13.92;100.00;4699.19;6225224;22;20400;-72
2021/09/25 00:53:40;;;;;;;0.70;0.60;;;;;;;13.86;100.00;4627.25;6250089;22;20423;-73
2021/09/25 00:56:12;;;;;;;0.80;0.70;;;;;;;13.77;100.00;4146.50;6277957;22;20761;-73
2021/09/25 00:58:40;;;;;;;0.70;0.70;;;;;;;13.70;100.00;3361.91;6250682;22;20394;-73
2021/09/25 01:01:10;;;;;;;0.80;0.80;;;;;;;13.76;100.00;2736.31;6249185;22;20247;-72
2021/09/25 01:03:39;;;;;;;0.70;0.60;;;;;;;13.82;100.00;2272.91;6277952;22;20418;-72
2021/09/25 01:06:08;;;;;;;0.70;0.60;;;;;;;13.81;100.00;1471.78;6251443;22;20430;-72
2021/09/25 01:08:41;;;;;;;0.73;0.73;;;;;;;13.80;100.00;860.88;6254027;22;20189;-72
2021/09/25 01:11:15;;;;;;;0.70;0.70;;;;;;;13.73;100.00;168.59;6252778;22;20378;-73
2021/09/25 01:13:49;;;;;;;0.70;0.60;;;;;;;13.67;100.00;-368.81;6251167;22;20426;-73
2021/09/25 01:16:22;;;;;;;0.80;0.70;;;;;;;13.57;100.00;-1134.09;6251784;22;20428;-73
2021/09/25 01:18:52;;;;;;;0.93;0.93;;;;;;;13.46;100.00;-1802.81;6251533;22;20377;-72
2021/09/25 01:21:30;;;;;;;0.70;0.60;;;;;;;13.39;100.00;-2519.16;6226607;22;20449;-72
2021/09/25 01:24:04;;;;;;;0.70;0.60;;;;;;;13.27;100.00;-3381.91;6250157;22;20453;-72
2021/09/25 01:26:37;;;;;;;0.70;0.60;;;;;;;13.19;100.00;-3925.59;6277627;22;20417;-72
2021/09/25 01:29:09;;;;;;;0.70;0.63;;;;;;;13.21;100.00;-4284.56;6278939;22;20861;-72
2021/09/25 01:31:41;;;;;;;0.70;0.60;;;;;;;13.19;100.00;-4860.84;6253299;22;20367;-72
2021/09/25 01:34:13;;;;;;;0.80;0.70;;;;;;;13.18;100.00;-5449.66;6278487;22;20371;-72
2021/09/25 01:36:52;;;;;;;0.70;0.70;;;;;;;13.12;100.00;-6086.16;6251247;22;20443;-72
2021/09/25 01:39:26;;;;;;;0.70;0.70;;;;;;;13.12;100.00;-6639.34;6252421;22;20906;-73
2021/09/25 01:41:57;;;;;;;0.70;0.70;;;;;;;13.06;100.00;-7217.41;6278605;22;20375;-72
2021/09/25 01:44:33;;;;;;;0.70;0.70;;;;;;;13.03;100.00;-7797.91;6226177;22;20771;-72
2021/09/25 01:47:06;;;;;;;0.70;0.60;;;;;;;12.98;100.00;-8438.72;6277567;22;20372;-72
2021/09/25 01:50:02;;;;;;;0.70;0.60;;;;;;;13.00;100.00;-8898.19;6277403;22;20384;-73
2021/09/25 01:52:39;;;;;;;0.80;0.80;;;;;;;13.06;100.00;-8903.66;6225508;22;20510;-73
2021/09/25 01:55:10;;;;;;;0.70;0.70;;;;;;;13.05;100.00;-8873.31;6224509;22;20421;-73
2021/09/25 01:57:39;;;;;;;0.77;0.70;;;;;;;12.97;100.00;-9079.63;6276129;22;20759;-72
2021/09/25 02:00:07;;;;;;;0.70;0.60;;;;;;;12.98;100.00;-9543.94;6276617;22;20374;-72
2021/09/25 02:02:35;;;;;;;0.70;0.70;;;;;;;13.11;100.00;-9842.75;6250601;22;20512;-71
2021/09/25 02:05:04;;;;;;;0.70;0.63;;;;;;;13.12;100.00;-10347.44;6250932;22;20387;-73
2021/09/25 02:07:31;;;;;;;0.70;0.70;;;;;;;13.09;100.00;-10942.44;6277642;22;20490;-73
2021/09/25 02:10:00;;;;;;;0.70;0.60;;;;;;;12.99;100.00;-11586.97;6250263;22;20438;-72
2021/09/25 02:12:27;;;;;;;0.70;0.60;;;;;;;12.98;100.00;-12166.69;6277273;22;20782;-72
2021/09/25 02:14:54;;;;;;;0.70;0.70;;;;;;;12.98;100.00;-12610.34;6276557;22;20478;-72
2021/09/25 02:17:21;;;;;;;1.07;0.97;;;;;;;13.21;100.00;-12956.28;6250471;22;20425;-72
2021/09/25 02:19:49;;;;;;;0.70;0.60;;;;;;;13.65;100.00;-13128.97;6277405;22;20425;-73
2021/09/25 02:22:17;;;;;;;0.70;0.60;;;;;;;13.88;100.00;-13238.34;6250172;22;20441;-73
2021/09/25 02:24:44;;;;;;;0.80;0.80;;;;;;;13.93;100.00;-13274.41;6277468;22;20379;-72
2021/09/25 02:27:12;;;;;;;0.70;0.70;;;;;;;13.77;100.00;-13443.59;6225454;22;20762;-73
2021/09/25 02:29:39;;;;;;;0.70;0.60;;;;;;;13.58;100.00;-13806.44;6277015;22;20441;-72
2021/09/25 02:32:07;;;;;;;0.70;0.60;;;;;;;13.44;100.00;-14147.28;6249413;22;20428;-73
2021/09/25 02:34:35;;;;;;;0.70;0.60;;;;;;;13.26;100.00;-14575.31;6277160;22;20368;-73
2021/09/25 02:37:03;;;;;;;0.70;0.70;;;;;;;13.17;100.00;-15009.75;6250186;22;20780;-72
2021/09/25 02:39:32;;;;;;;0.70;0.60;;;;;;;13.06;100.00;-15347.84;6249135;22;20409;-74
2021/09/25 02:41:59;;;;;;;0.70;0.67;;;;;;;13.00;100.00;-15651.56;6277114;22;20679;-72
2021/09/25 02:44:27;;;;;;;0.70;0.60;;;;;;;12.91;100.00;-15941.94;6276669;22;20984;-72
2021/09/25 02:46:55;;;;;;;0.70;0.60;;;;;;;12.82;100.00;-16204.50;6277073;22;20392;-72
2021/09/25 02:49:22;;;;;;;0.73;0.70;;;;;;;12.70;100.00;-16640.00;6249714;22;20486;-73
2021/09/25 02:51:50;;;;;;;0.80;0.80;;;;;;;12.61;100.00;-16887.22;6276555;22;20375;-73
2021/09/25 02:54:17;;;;;;;0.70;0.60;;;;;;;12.62;100.00;-17204.50;6276979;22;20395;-72
2021/09/25 02:56:44;;;;;;;0.70;0.70;;;;;;;12.58;100.00;-17555.88;6277703;22;20371;-72
2021/09/25 02:59:13;;;;;;;0.70;0.60;;;;;;;12.53;100.00;-18022.41;6250042;22;20397;-73
2021/09/25 03:01:46;;;;;;;0.70;0.60;;;;;;;12.48;100.00;-18385.81;6251085;22;20382;-73
2021/09/25 03:04:13;;;;;;;0.70;0.60;;;;;;;12.48;100.00;-18712.75;6277115;22;20737;-73
2021/09/25 03:06:40;;;;;;;0.93;0.90;;;;;;;12.36;100.00;-19207.47;6277100;22;20365;-72
2021/09/25 03:09:14;;;;;;;0.70;0.67;;;;;;;12.33;100.00;-19633.88;6276047;22;20410;-72
2021/09/25 03:11:41;;;;;;;0.70;0.60;;;;;;;12.40;100.00;-19919.56;6224725;22;20716;-73
2021/09/25 03:14:08;;;;;;;0.70;0.60;;;;;;;12.38;100.00;-20300.91;6276224;22;20433;-72
2021/09/25 03:16:34;;;;;;;0.70;0.60;;;;;;;12.32;100.00;-20583.28;6249152;22;20407;-72
2021/09/25 03:19:03;;;;;;;0.70;0.60;;;;;;;12.28;100.00;-20858.34;6223694;22;20403;-72
2021/09/25 03:21:30;;;;;;;0.70;0.60;;;;;;;12.27;100.00;-21015.66;6249491;22;20399;-72
2021/09/25 03:23:58;;;;;;;0.70;0.60;;;;;;;12.26;100.00;-21015.50;6249878;22;21037;-72
2021/09/25 03:26:24;;;;;;;0.70;0.60;;;;;;;12.27;100.00;-21015.66;6276631;22;20369;-72
2021/09/25 03:28:51;;;;;;;0.70;0.67;;;;;;;12.21;100.00;-21014.13;6250335;22;20376;-72
2021/09/25 03:31:18;;;;;;;0.70;0.60;;;;;;;12.20;100.00;-21013.72;6249717;22;20470;-71
2021/09/25 03:33:45;;;;;;;0.70;0.60;;;;;;;12.19;100.00;-21013.44;6251162;22;20946;-72
2021/09/25 03:36:13;;;;;;;0.70;0.60;;;;;;;12.19;100.00;-21013.44;6257559;22;20394;-72
2021/09/25 03:38:41;;;;;;;0.80;0.80;;;;;;;12.16;100.00;-21012.59;6277212;22;20399;-72
2021/09/25 03:41:11;;;;;;;0.70;0.60;;;;;;;12.13;100.00;-21011.78;6225230;22;20387;-73
2021/09/25 03:43:37;;;;;;;0.70;0.60;;;;;;;12.09;100.00;-21010.94;6249820;22;20834;-72
2021/09/25 03:46:04;;;;;;;0.70;0.70;;;;;;;12.06;100.00;-21010.13;6224337;22;20731;-72
2021/09/25 03:48:31;;;;;;;0.70;0.60;;;;;;;12.03;100.00;-21009.28;6250496;22;20371;-72
2021/09/25 03:50:58;;;;;;;0.70;0.60;;;;;;;12.08;100.00;-21010.69;6226464;22;20734;-73
2021/09/25 03:53:26;;;;;;;0.70;0.70;;;;;;;12.23;100.00;-21014.53;6278465;22;20916;-72
2021/09/25 03:55:53;;;;;;;0.70;0.60;;;;;;;12.24;100.00;-21014.81;6278669;22;20419;-72
2021/09/25 03:58:21;;;;;;;0.70;0.60;;;;;;;12.20;100.00;-21013.72;6251717;22;20475;-72
2021/09/25 04:00:48;;;;;;;0.70;0.60;;;;;;;12.18;100.00;-21013.16;6278210;22;20374;-72
2021/09/25 04:03:15;;;;;;;0.70;0.60;;;;;;;12.16;100.00;-21012.59;6278679;22;20424;-72
2021/09/25 04:05:42;;;;;;;0.70;0.70;;;;;;;12.22;100.00;-21014.41;6251957;22;20394;-72
2021/09/25 04:08:09;;;;;;;0.70;0.60;;;;;;;12.26;100.00;-21015.38;6279437;22;20485;-73
2021/09/25 04:10:37;;;;;;;0.70;0.60;;;;;;;12.11;100.00;-21011.22;6279000;22;20387;-73
2021/09/25 04:13:04;;;;;;;0.70;0.60;;;;;;;12.11;100.00;-21011.38;6251763;22;20434;-71
2021/09/25 04:15:31;;;;;;;0.70;0.60;;;;;;;12.08;100.00;-21010.69;6226492;22;20417;-72
2021/09/25 04:17:58;;;;;;;0.70;0.70;;;;;;;12.12;100.00;-21011.63;6251624;22;20860;-72
2021/09/25 04:20:25;;;;;;;1.70;1.30;;;;;;;12.06;100.00;-21010.13;6278118;22;20753;-72
2021/09/25 04:22:52;;;;;;;1.77;1.67;;;;;;;12.04;100.00;-21009.44;6251457;22;20403;-72
2021/09/25 04:25:26;;;;;;;0.80;0.80;;;;;;;12.04;100.00;-21009.56;6278250;22;20383;-72
2021/09/25 04:27:54;;;;;;;0.70;0.60;;;;;;;12.09;100.00;-21010.94;6278971;22;20753;-72
2021/09/25 04:30:21;;;;;;;0.70;0.60;;;;;;;12.16;100.00;-21012.59;6277549;22;20462;-72
2021/09/25 04:32:48;;;;;;;0.70;0.70;;;;;;;12.21;100.00;-21014.00;6251067;22;20368;-73
2021/09/25 04:35:15;;;;;;;0.70;0.70;;;;;;;12.23;100.00;-21014.53;6250937;22;20388;-72
2021/09/25 04:37:42;;;;;;;0.70;0.60;;;;;;;12.18;100.00;-21013.28;6251044;22;20398;-72
2021/09/25 04:40:10;;;;;;;0.70;0.60;;;;;;;12.09;100.00;-21010.81;6251893;22;20371;-73
2021/09/25 04:42:37;;;;;;;0.70;0.60;;;;;;;12.02;100.00;-21008.88;6278122;22;20710;-72
2021/09/25 04:45:11;;;;;;;0.70;0.60;;;;;;;11.99;100.00;-21008.06;6250222;22;20423;-72
2021/09/25 04:47:39;;;;;;;0.70;0.60;;;;;;;11.93;100.00;-21006.38;6277932;22;20426;-72
2021/09/25 04:50:07;;;;;;;0.73;0.70;;;;;;;11.99;100.00;-21008.19;6226397;22;20406;-73
2021/09/25 04:52:34;;;;;;;0.80;0.70;;;;;;;11.99;100.00;-21008.19;6250181;22;20502;-72
2021/09/25 04:55:01;;;;;;;0.73;0.70;;;;;;;11.99;100.00;-21008.06;6250655;22;20400;-72
2021/09/25 04:57:28;;;;;;;0.70;0.60;;;;;;;12.12;100.00;-21011.50;6251834;22;20428;-72
2021/09/25 04:59:55;;;;;;;0.70;0.60;;;;;;;12.27;100.00;-21015.78;6250605;22;20874;-72
2021/09/25 05:02:23;;;;;;;0.70;0.60;;;;;;;12.55;100.00;-21023.22;6277578;22;20387;-74
2021/09/25 05:04:51;;;;;;;0.70;0.60;;;;;;;12.67;100.00;-21026.41;6221732;22;20529;-72
2021/09/25 05:07:17;;;;;;;0.70;0.60;;;;;;;12.91;100.00;-21033.03;6223567;22;20515;-72
2021/09/25 05:09:45;;;;;;;0.70;0.60;;;;;;;13.01;100.00;-21035.66;6225346;22;20391;-72
2021/09/25 05:12:11;;;;;;;0.80;0.70;;;;;;;13.08;100.00;-21037.44;6249327;22;20423;-72
2021/09/25 05:14:40;;;;;;;0.70;0.60;;;;;;;13.11;100.00;-21038.41;6250322;22;20851;-72
2021/09/25 05:17:08;;;;;;;0.70;0.70;;;;;;;13.12;100.00;-21038.53;6250511;22;20387;-72
2021/09/25 05:19:39;;;;;;;0.70;0.70;;;;;;;13.18;100.00;-21040.34;6251270;22;20374;-72
2021/09/25 05:22:06;;;;;;;0.70;0.60;;;;;;;13.28;100.00;-21042.97;6278157;22;20444;-72
2021/09/25 05:24:33;;;;;;;0.70;0.60;;;;;;;13.40;100.00;-21046.28;6277736;22;20463;-73
2021/09/25 05:27:00;;;;;;;0.70;0.60;;;;;;;13.55;100.00;-21050.28;6277533;22;20428;-72
2021/09/25 05:29:27;;;;;;;0.80;0.77;;;;;;;13.62;100.00;-21052.06;6277956;22;20431;-72
2021/09/25 05:31:58;;;;;;;0.70;0.60;;;;;;;13.77;100.00;-21056.19;6277539;22;20390;-72
2021/09/25 05:34:25;;;;;;;0.70;0.70;;;;;;;13.87;100.00;-21058.94;6278083;22;20372;-72
2021/09/25 05:36:54;;;;;;;0.70;0.60;;;;;;;13.90;100.00;-21059.63;6225977;22;20762;-72
2021/09/25 05:39:21;;;;;;;0.70;0.70;;;;;;;13.91;100.00;-21060.03;6277589;22;20409;-72
2021/09/25 05:41:48;;;;;;;0.70;0.67;;;;;;;13.97;100.00;-21061.56;6277929;22;20874;-72
2021/09/25 05:44:15;;;;;;;0.83;0.83;;;;;;;13.99;100.00;-21062.25;6277525;22;20453;-72
2021/09/25 05:46:42;;;;;;;0.80;0.80;;;;;;;14.07;100.00;-21064.31;6250959;22;20779;-73
2021/09/25 05:49:09;;;;;;;0.70;0.60;;;;;;;14.11;100.00;-21065.41;6250571;22;20403;-72
2021/09/25 05:51:36;;;;;;;0.70;0.70;;;;;;;14.15;100.00;-21066.38;6277810;22;20371;-71
2021/09/25 05:54:04;;;;;;;0.80;0.70;;;;;;;14.30;100.00;-21070.53;6250369;22;20438;-72
2021/09/25 05:56:34;;;;;;;2.30;0.83;;;;;;;14.44;100.00;-21074.38;6250703;22;20764;-72
2021/09/25 05:59:03;;;;;;;1.00;0.90;;;;;;;14.57;100.00;-21077.81;6277218;22;20753;-72
2021/09/25 06:01:30;;;;;;;0.70;0.60;;;;;;;14.60;100.00;-21078.66;6224725;22;20403;-73
2021/09/25 06:03:57;;;;;;;0.80;0.70;;;;;;;14.78;100.00;-21083.47;6277754;22;20949;-71
2021/09/25 06:06:25;;;;;;;0.70;0.70;;;;;;;14.83;100.00;-21084.84;6277125;22;20833;-72
2021/09/25 06:08:55;;;;;;;0.70;0.60;;;;;;;14.95;100.00;-21088.00;6250469;22;20422;-72
2021/09/25 06:11:24;;;;;;;0.70;0.70;;;;;;;15.00;100.00;-21089.25;6225778;22;20472;-73
2021/09/25 06:13:51;;;;;;;0.70;0.70;;;;;;;15.04;100.00;-21090.34;6277180;22;20398;-72
2021/09/25 06:16:18;;;;;;;0.77;0.73;;;;;;;15.11;100.00;-21092.25;6276939;22;20390;-72
2021/09/25 06:18:45;;;;;;;0.70;0.67;;;;;;;15.20;100.00;-21094.75;6250264;22;20403;-72
2021/09/25 06:21:12;;;;;;;0.70;0.70;;;;;;;15.31;100.00;-21097.75;6277570;22;20432;-73
2021/09/25 06:23:39;;;;;;;0.70;0.70;;;;;;;15.36;100.00;-21099.00;6251469;22;20905;-73
2021/09/25 06:26:08;;;;;;;0.70;0.60;;;;;;;15.39;100.00;-21099.97;6277085;22;20455;-72
2021/09/25 06:28:37;;;;;;;0.70;0.70;;;;;;;15.44;100.00;-21101.34;6251772;22;20903;-72
2021/09/25 06:31:04;;;;;;;0.70;0.60;;;;;;;15.59;100.00;-21105.19;6278150;22;20452;-72
2021/09/25 06:33:32;;;;;;;1.10;1.00;;;;;;;15.59;100.00;-21105.19;6277267;22;20373;-72
2021/09/25 06:36:00;;;;;;;0.70;0.70;;;;;;;15.58;100.00;-21105.06;6249579;22;20486;-73
2021/09/25 06:38:27;;;;;;;0.70;0.60;;;;;;;15.69;100.00;-21107.94;6276377;22;20497;-73
2021/09/25 06:40:54;;;;;;;0.70;0.67;;;;;;;15.60;100.00;-21103.56;6249312;22;20819;-71
2021/09/25 06:43:20;;;;;;;0.80;0.80;;;;;;;15.61;100.00;-20980.13;6249445;22;20443;-72
2021/09/25 06:45:49;;;;;;;0.70;0.70;;;;;;;15.63;100.00;-20847.00;6223880;22;20431;-73
2021/09/25 06:48:16;;;;;;;0.80;0.80;;;;;;;15.73;100.00;-20647.44;6249854;22;20431;-72
2021/09/25 06:50:43;;;;;;;0.70;0.60;;;;;;;15.86;100.00;-20413.59;6276821;22;20464;-72
2021/09/25 06:53:10;;;;;;;0.70;0.60;;;;;;;16.07;100.00;-20138.38;6276805;22;20509;-72
2021/09/25 06:55:37;;;;;;;0.70;0.63;;;;;;;16.16;100.00;-19936.09;6223918;22;20499;-71
2021/09/25 06:58:05;;;;;;;0.80;0.80;;;;;;;16.35;100.00;-19705.53;6224246;22;20402;-72
2021/09/25 07:00:32;;;;;;;0.70;0.60;;;;;;;16.43;100.00;-19578.56;6249032;22;20367;-72
2021/09/25 07:03:00;;;;;;;0.70;0.63;;;;;;;16.67;100.00;-19493.34;6249107;22;20452;-72
2021/09/25 07:05:27;;;;;;;0.70;0.70;;;;;;;16.60;100.00;-19782.66;6250058;22;20466;-72
2021/09/25 07:07:54;;;;;;;0.80;0.70;;;;;;;16.80;100.00;-20043.00;6223809;22;20433;-72
2021/09/25 07:10:22;;;;;;;1.63;1.00;;;;;;;16.88;100.00;-20604.25;6249608;22;20394;-72
2021/09/25 07:12:49;;;;;;;0.90;0.90;;;;;;;16.85;100.00;-21139.13;6251521;22;20417;-72
2021/09/25 07:15:19;;;;;;;0.80;0.70;;;;;;;16.97;100.00;-21142.41;6224003;22;20398;-72
2021/09/25 07:17:49;;;;;;;0.70;0.70;;;;;;;17.18;100.00;-21147.91;6249265;22;20738;-73
2021/09/25 07:20:18;;;;;;;0.70;0.70;;;;;;;17.13;100.00;-21146.66;6276279;22;20440;-72
2021/09/25 07:22:47;;;;;;;0.70;0.67;;;;;;;17.34;100.00;-21152.44;6249337;22;20425;-73
2021/09/25 07:25:14;;;;;;;0.80;0.70;;;;;;;17.45;100.00;-21155.16;6226621;22;20502;-72
2021/09/25 07:27:41;;;;;;;0.80;0.70;;;;;;;17.72;100.00;-21162.44;6253810;22;20372;-72
2021/09/25 07:30:09;;;;;;;0.70;0.60;;;;;;;17.80;100.00;-21164.78;6279893;22;20385;-72
2021/09/25 07:32:36;;;;;;;0.70;0.70;;;;;;;17.88;100.00;-21166.81;6279245;22;20401;-72
2021/09/25 07:35:04;;;;;;;0.70;0.60;;;;;;;17.77;100.00;-21163.94;6254873;22;20484;-72
2021/09/25 07:37:34;;;;;;;0.70;0.70;;;;;;;17.99;100.00;-21169.84;6255448;22;20417;-72
2021/09/25 07:40:01;;;;;;;0.80;0.73;;;;;;;17.76;100.00;-21163.66;6280052;22;20442;-72
2021/09/25 07:42:28;;;;;;;0.70;0.60;;;;;;;17.88;100.00;-21166.69;6252701;22;20430;-72
2021/09/25 07:44:55;;;;;;;1.00;0.90;;;;;;;17.60;100.00;-21159.28;6279182;22;20974;-72
2021/09/25 07:47:22;;;;;;;0.70;0.70;;;;;;;17.69;100.00;-21161.75;6253326;22;20389;-73
2021/09/25 07:49:49;;;;;;;0.70;0.70;;;;;;;17.60;100.00;-21159.41;6254611;22;20692;-72
2021/09/25 07:52:17;;;;;;;0.70;0.60;;;;;;;17.89;100.00;-21167.09;6278900;22;20814;-73
2021/09/25 07:54:45;;;;;;;0.70;0.60;;;;;;;18.03;100.00;-21170.78;6283133;22;20831;-72
2021/09/25 07:57:12;;;;;;;0.70;0.60;;;;;;;18.07;100.00;-21172.03;6255228;22;20851;-72
2021/09/25 07:59:39;;;;;;;0.70;0.60;;;;;;;18.23;100.00;-21176.13;6281589;22;20374;-73
2021/09/25 08:02:07;;;;;;;0.80;0.70;;;;;;;18.16;100.00;-21174.22;6280224;22;20860;-71
2021/09/25 08:04:34;;;;;;;0.80;0.80;;;;;;;18.45;100.00;-21182.16;6252572;22;20505;-72
2021/09/25 08:07:01;;;;;;;0.80;0.70;;;;;;;18.81;100.00;-21191.88;6252909;22;20430;-72
2021/09/25 08:09:28;;;;;;;7.30;1.03;;;;;;;18.90;100.00;-21194.06;6279316;22;20861;-72
2021/09/25 08:11:56;;;;;;;0.70;0.60;;;;;;;19.43;100.00;-21208.31;6279267;22;20393;-72
2021/09/25 08:14:23;;;;;;;2.00;0.80;;;;;;;19.69;100.00;-21215.41;6279650;22;20867;-72
2021/09/25 08:16:52;;;;;;;0.80;0.67;;;;;;;19.83;100.00;-21218.97;6279682;22;20398;-72
2021/09/25 08:19:19;;;;;;;0.70;0.60;;;;;;;19.99;100.00;-21223.47;6253563;22;20395;-71
2021/09/25 08:21:46;;;;;;;0.70;0.60;;;;;;;20.49;100.00;-21236.88;6253117;22;20383;-72
2021/09/25 08:24:13;;;;;;;0.70;0.60;;;;;;;20.83;100.00;-21245.88;6252014;22;20808;-72
2021/09/25 08:26:40;;;;;;;0.80;0.70;;;;;;;21.26;100.00;-21257.34;6252918;22;20383;-73
2021/09/25 08:29:08;;;;;;;1.10;1.00;;;;;;;21.76;100.00;-21270.56;6251916;22;20378;-72
2021/09/25 08:31:35;;;;;;;1.00;0.90;;;;;;;22.18;100.00;-21282.00;6279303;22;20894;-72
2021/09/25 08:34:02;;;;;;;0.73;0.60;;;;;;;22.20;100.00;-21282.41;6254015;22;20408;-72
2021/09/25 08:36:29;;;;;;;0.70;0.60;;;;;;;22.29;100.00;-21284.88;6251975;22;20440;-73
2021/09/25 08:39:09;;;;;;;0.70;0.60;;;;;;;22.33;100.00;-21285.81;6228610;22;20430;-73
2021/09/25 08:41:36;;;;;;;0.80;0.70;;;;;;;22.58;100.00;-21292.63;6250752;22;20402;-72
2021/09/25 08:44:05;;;;;;;0.70;0.60;;;;;;;23.06;100.00;-21305.44;6278095;22;20372;-73
2021/09/25 08:46:33;;;;;;;0.80;0.70;;;;;;;22.69;100.00;-21295.34;6277171;22;20391;-72
2021/09/25 08:49:03;;;;;;;1.10;1.00;;;;;;;22.47;100.00;-21289.63;6251371;22;20394;-73
2021/09/25 08:51:30;;;;;;;0.80;0.80;;;;;;;22.66;100.00;-21294.81;6277622;22;20371;-72
2021/09/25 08:53:56;;;;;;;0.70;0.60;;;;;;;23.00;100.00;-21303.78;6250956;22;20411;-72
2021/09/25 08:56:24;;;;;;;0.70;0.57;;;;;;;23.02;100.00;-21304.34;6250704;22;20398;-72
2021/09/25 08:58:51;;;;;;;0.70;0.60;;;;;;;23.50;100.00;-21317.00;6249761;22;20433;-72
2021/09/25 09:01:19;;;;;;;0.70;0.50;;;;;;;23.67;100.00;-21321.47;6277406;22;20399;-71
2021/09/25 09:03:51;;;;;;;0.70;0.50;;;;;;;23.58;100.00;-21319.16;6249929;22;20425;-72
2021/09/25 09:06:20;;;;;;;1.00;0.90;;;;;;;24.17;100.00;-21334.78;6277289;22;20497;-72
2021/09/25 09:08:49;;;;;;;0.77;0.60;;;;;;;25.39;100.00;-21367.22;6250510;22;20423;-72
2021/09/25 09:11:18;;;;;;;0.70;0.50;;;;;;;24.97;100.00;-21356.25;6277803;22;20378;-70
2021/09/25 09:13:47;;;;;;;0.70;0.50;;;;;;;25.02;100.00;-21357.59;6277257;22;20395;-70
2021/09/25 09:16:15;;;;;;;0.70;0.50;;;;;;;25.37;100.00;-21366.69;6250177;22;20395;-70
2021/09/25 09:18:45;;;;;;;0.70;0.50;;;;;;;25.12;100.00;-21360.19;6277247;22;20455;-72
2021/09/25 09:21:16;;;;;;;1.43;0.90;;;;;;;25.40;100.00;-21367.63;6277254;22;20415;-72
2021/09/25 09:23:47;;;;;;;0.70;0.50;;;;;;;25.68;100.00;-21375.09;6249437;22;20791;-72
2021/09/25 09:26:16;;;;;;;0.70;0.60;;;;;;;25.52;100.00;-21370.88;6276000;22;20406;-72
2021/09/25 09:28:46;;;;;;;0.70;0.60;;;;;;;25.38;100.00;-21367.09;6276499;22;20836;-72
2021/09/25 09:31:14;;;;;;;0.70;0.67;;;;;;;25.19;100.00;-21361.94;6250328;22;20367;-72
2021/09/25 09:33:42;;;;;;;0.70;0.50;;;;;;;25.46;100.00;-21369.25;6277527;22;20378;-73
2021/09/25 09:36:28;;;;;;;0.90;0.60;;;;;;;26.26;100.00;-21390.38;6277538;22;20706;-73
2021/09/25 09:39:03;;;;;;;1.73;0.80;;;;;;;26.23;100.00;-21389.56;6277095;22;20406;-72
2021/09/25 09:41:31;;;;;;;0.70;0.50;;;;;;;26.06;100.00;-21384.97;6276807;22;20469;-72
2021/09/25 09:44:04;;;;;;;0.70;0.60;;;;;;;26.04;100.00;-21384.56;6253193;22;20368;-73
2021/09/25 09:46:34;;;;;;;0.73;0.60;;;;;;;26.34;100.00;-21392.56;6252351;22;20473;-72
2021/09/25 09:49:02;;;;;;;1.13;1.03;;;;;;;26.50;100.00;-21396.88;6278637;22;20410;-71
2021/09/25 09:51:46;;;;;;;1.00;0.80;;;;;;;25.93;100.00;-21381.72;6277454;22;20777;-71
2021/09/25 09:54:16;;;;;;;2.30;1.00;;;;;;;26.17;100.00;-21387.94;6276547;22;20756;-72
2021/09/25 09:56:44;;;;;;;0.70;0.50;;;;;;;26.53;100.00;-21397.44;6277119;22;20363;-71
2021/09/25 09:59:11;;;;;;;0.97;0.80;;;;;;;25.93;100.00;-21381.72;6250075;22;20372;-72
2021/09/25 10:01:39;;;;;;;0.70;0.50;;;;;;;25.82;100.00;-21378.75;6249456;22;20744;-71
2021/09/25 10:04:07;;;;;;;1.27;0.57;;;;;;;25.97;100.00;-21382.81;6225095;22;20730;-72
2021/09/25 10:06:36;;;;;;;0.77;0.57;;;;;;;25.60;100.00;-21372.78;6249648;22;20434;-71
2021/09/25 10:09:07;;;;;;;0.70;0.50;;;;;;;26.79;100.00;-21404.34;6277149;22;20724;-71
2021/09/25 10:11:36;;;;;;;0.70;0.50;;;;;;;26.78;100.00;-21404.19;6277379;22;20379;-72
2021/09/25 10:14:05;;;;;;;0.80;0.60;;;;;;;26.58;100.00;-21398.91;6275794;22;20422;-70
2021/09/25 10:16:33;;;;;;;1.53;0.90;;;;;;;27.10;100.00;-21412.72;6248899;22;20862;-71
2021/09/25 10:19:01;;;;;;;0.80;0.70;;;;;;;27.40;100.00;-21420.69;6276139;22;20367;-72
2021/09/25 10:21:32;;;;;;;0.80;0.60;;;;;;;27.16;100.00;-21414.19;6225052;22;20438;-71
2021/09/25 10:24:01;;;;;;;1.53;1.43;;;;;;;27.60;100.00;-21425.81;6280472;22;20407;-72
2021/09/25 10:26:30;;;;;;;0.90;0.60;;;;;;;27.83;100.00;-21432.03;6276630;22;20899;-72
2021/09/25 10:29:00;;;;;;;0.80;0.60;;;;;;;28.16;100.00;-21440.81;6248573;22;20452;-72
2021/09/25 10:31:28;;;;;;;0.70;0.50;;;;;;;27.77;100.00;-21430.41;6249703;22;20763;-72
2021/09/25 10:34:14;;;;;;;1.13;1.03;;;;;;;28.28;100.00;-21443.78;6276888;22;20709;-72
2021/09/25 10:36:47;;;;;;;0.80;0.60;;;;;;;27.43;100.00;-21421.50;6275916;22;20439;-72
2021/09/25 10:39:29;;;;;;;0.80;0.60;;;;;;;27.53;100.00;-21423.94;6276524;22;20405;-72
2021/09/25 10:42:01;;;;;;;1.30;0.80;;;;;;;27.23;100.00;-21416.09;6249864;22;20399;-72
2021/09/25 10:44:30;;;;;;;0.80;0.60;;;;;;;27.50;100.00;-21423.25;6249244;22;20395;-71
2021/09/25 10:47:08;;;;;;;1.20;1.10;;;;;;;27.40;100.00;-21420.69;6248876;22;20423;-71
2021/09/25 10:49:42;;;;;;;1.77;0.70;;;;;;;28.68;100.00;-21454.44;6276941;22;20449;-72
2021/09/25 10:52:10;;;;;;;0.90;0.77;;;;;;;27.65;100.00;-21427.31;6275931;22;20371;-71
2021/09/25 10:54:37;;;;;;;0.70;0.50;;;;;;;28.04;100.00;-21437.56;6275891;22;20462;-72
2021/09/25 10:57:14;;;;;;;1.23;0.70;;;;;;;27.19;100.00;-21415.00;6276969;22;20371;-71
2021/09/25 11:00:17;;;;;;;0.73;0.50;;;;;;;27.69;100.00;-21428.25;6275503;22;20429;-72
2021/09/25 11:02:45;;;;;;;0.70;0.50;;;;;;;27.52;100.00;-21423.81;6266593;22;20460;-72
2021/09/25 11:05:15;;;;;;;0.70;0.50;;;;;;;27.72;100.00;-21429.06;6249192;22;20517;-71
2021/09/25 11:07:43;;;;;;;0.70;0.50;;;;;;;27.45;100.00;-21422.03;6250100;22;20933;-73
2021/09/25 11:10:10;;;;;;;1.40;1.20;;;;;;;27.71;100.00;-21428.78;6276834;22;20768;-72
2021/09/25 11:12:46;;;;;;;0.70;0.50;;;;;;;27.28;100.00;-21417.44;6248875;22;20398;-73
2021/09/25 11:15:33;;;;;;;0.70;0.50;;;;;;;27.73;100.00;-21429.19;6276388;22;20721;-72
2021/09/25 11:18:25;;;;;;;0.70;0.50;;;;;;;28.12;100.00;-21439.72;6248758;22;20470;-72
2021/09/25 11:21:01;;;;;;;0.70;0.53;;;;;;;28.93;100.00;-21461.06;6224211;22;20383;-72
2021/09/25 11:23:41;;;;;;;0.80;0.67;;;;;;;28.01;100.00;-21436.75;6276371;22;20402;-72
2021/09/25 11:26:08;;;;;;;0.70;0.50;;;;;;;27.50;100.00;-21423.13;6277212;22;20960;-71
2021/09/25 11:28:43;;;;;;;0.73;0.60;;;;;;;27.48;100.00;-21422.59;6276538;22;20474;-72